createdAt,value
2017-09-26T00:00:28.918Z,15.50
2017-09-26T00:02:57.562Z,15.23
2017-09-26T00:05:25.881Z,14.27
2017-09-26T00:07:53.411Z,15.27
2017-09-26T00:10:21.253Z,15.83
2017-09-26T00:12:48.789Z,14.47
2017-09-26T00:15:17.094Z,15.23
2017-09-26T00:17:44.959Z,16.83
2017-09-26T00:20:12.488Z,15.57
2017-09-26T00:22:40.786Z,15.70
2017-09-26T00:25:14.694Z,15.90
2017-09-26T00:27:42.224Z,15.87
2017-09-26T00:30:09.747Z,15.93
2017-09-26T00:32:37.633Z,15.10
2017-09-26T00:35:05.249Z,15.50
2017-09-26T00:37:32.780Z,15.80
2017-09-26T00:40:01.361Z,15.30
2017-09-26T00:42:29.667Z,15.20
2017-09-26T00:44:57.216Z,16.53
2017-09-26T00:47:25.144Z,16.40
2017-09-26T00:49:52.676Z,15.00
2017-09-26T00:52:20.199Z,15.53
2017-09-26T00:54:49.125Z,14.93
2017-09-26T00:57:16.706Z,15.77
2017-09-26T00:59:44.240Z,15.07
2017-09-26T01:02:12.113Z,16.23
2017-09-26T01:04:52.321Z,16.07
2017-09-26T01:07:36.942Z,15.60
2017-09-26T01:10:04.470Z,15.80
2017-09-26T01:12:32.008Z,15.87
2017-09-26T01:15:00.631Z,15.87
2017-09-26T01:17:28.144Z,14.60
2017-09-26T01:19:56.467Z,16.60
2017-09-26T01:22:24.296Z,16.23
2017-09-26T01:24:52.610Z,16.43
2017-09-26T01:27:20.139Z,17.20
2017-09-26T01:29:48.754Z,16.17
2017-09-26T01:32:16.272Z,16.40
2017-09-26T01:34:43.796Z,15.23
2017-09-26T01:37:11.636Z,16.53
2017-09-26T01:39:39.164Z,16.27
2017-09-26T01:42:06.715Z,15.63
2017-09-26T01:44:34.655Z,17.07
2017-09-26T01:47:02.192Z,16.63
2017-09-26T01:49:29.724Z,16.27
2017-09-26T01:51:58.376Z,15.13
2017-09-26T01:54:25.922Z,16.70
2017-09-26T01:57:00.479Z,16.10
2017-09-26T01:59:28.030Z,15.57
2017-09-26T02:01:55.582Z,15.10
2017-09-26T02:04:23.421Z,16.33
2017-09-26T02:06:50.943Z,17.87
2017-09-26T02:09:19.231Z,16.27
2017-09-26T02:11:47.871Z,16.67
2017-09-26T02:14:15.405Z,16.50
2017-09-26T02:16:43.514Z,16.33
2017-09-26T02:19:11.362Z,17.70
2017-09-26T02:21:38.875Z,16.97
2017-09-26T02:24:07.170Z,17.80
2017-09-26T02:26:34.997Z,16.43
2017-09-26T02:29:02.520Z,18.10
2017-09-26T02:31:30.047Z,17.20
2017-09-26T02:33:57.898Z,17.30
2017-09-26T02:36:26.194Z,17.60
2017-09-26T02:38:53.728Z,18.17
2017-09-26T02:41:22.344Z,17.43
2017-09-26T02:43:49.879Z,17.83
2017-09-26T02:46:18.170Z,17.77
2017-09-26T02:48:46.755Z,15.50
2017-09-26T02:51:15.035Z,17.77
2017-09-26T02:53:42.567Z,16.70
2017-09-26T02:56:10.371Z,16.93
2017-09-26T02:58:37.912Z,16.97
2017-09-26T03:01:06.211Z,16.90
2017-09-26T03:03:34.089Z,16.77
2017-09-26T03:06:01.625Z,18.03
2017-09-26T03:08:29.918Z,16.40
2017-09-26T03:10:57.754Z,16.80
2017-09-26T03:13:26.075Z,17.57
2017-09-26T03:15:53.620Z,17.77
2017-09-26T03:18:21.507Z,16.73
2017-09-26T03:20:49.044Z,16.50
2017-09-26T03:23:16.571Z,17.30
2017-09-26T03:25:45.212Z,17.07
2017-09-26T03:28:12.735Z,17.23
2017-09-26T03:30:40.264Z,18.43
2017-09-26T03:33:08.102Z,17.70
2017-09-26T03:35:36.615Z,16.73
2017-09-26T03:38:04.136Z,18.50
2017-09-26T03:40:32.005Z,18.00
2017-09-26T03:42:59.520Z,18.10
2017-09-26T03:45:27.835Z,17.10
2017-09-26T03:47:55.658Z,17.90
2017-09-26T03:50:23.192Z,17.60
2017-09-26T03:52:50.730Z,17.43
2017-09-26T03:55:18.703Z,16.90
2017-09-26T03:57:46.242Z,16.57
2017-09-26T04:00:13.764Z,19.63
2017-09-26T04:02:41.557Z,18.77
2017-09-26T04:05:09.888Z,17.27
2017-09-26T04:07:37.417Z,18.10
2017-09-26T04:10:05.244Z,17.57
2017-09-26T04:12:33.538Z,18.80
2017-09-26T04:15:01.839Z,19.63
2017-09-26T04:17:29.820Z,19.10
2017-09-26T04:19:57.344Z,18.90
2017-09-26T04:22:24.898Z,17.37
2017-09-26T04:24:53.495Z,17.90
2017-09-26T04:27:21.032Z,17.90
2017-09-26T04:29:48.554Z,17.83
2017-09-26T04:32:16.515Z,18.57
2017-09-26T04:34:44.039Z,18.77
2017-09-26T04:37:12.366Z,19.87
2017-09-26T04:39:40.180Z,24.93
2017-09-26T04:42:08.480Z,19.83
2017-09-26T04:44:36.011Z,18.67
2017-09-26T04:47:03.852Z,18.00
2017-09-26T04:49:31.377Z,19.33
2017-09-26T04:51:58.903Z,21.43
2017-09-26T04:54:26.750Z,20.00
2017-09-26T04:56:54.254Z,19.40
2017-09-26T04:59:21.784Z,21.63
2017-09-26T05:01:50.381Z,19.43
2017-09-26T05:04:18.668Z,20.63
2017-09-26T05:06:46.207Z,20.60
2017-09-26T05:09:14.827Z,18.90
2017-09-26T05:11:42.351Z,19.63
2017-09-26T05:14:10.642Z,18.57
2017-09-26T05:16:39.241Z,19.10
2017-09-26T05:19:06.765Z,19.67
2017-09-26T05:21:34.345Z,18.90
2017-09-26T05:24:02.941Z,20.60
2017-09-26T05:26:30.463Z,19.17
2017-09-26T05:28:58.001Z,18.60
2017-09-26T05:31:25.937Z,19.53
2017-09-26T05:33:53.529Z,19.87
2017-09-26T05:36:21.075Z,19.67
2017-09-26T05:38:48.944Z,18.27
2017-09-26T05:41:16.475Z,18.00
2017-09-26T05:43:44.037Z,19.37
2017-09-26T05:46:11.624Z,18.30
2017-09-26T05:48:39.189Z,18.43
2017-09-26T05:51:06.806Z,21.50
2017-09-26T05:53:34.368Z,18.63
2017-09-26T05:56:02.712Z,18.83
2017-09-26T05:58:30.243Z,17.50
2017-09-26T06:00:57.806Z,16.53
2017-09-26T06:03:25.335Z,16.37
2017-09-26T06:05:53.643Z,16.17
2017-09-26T06:08:21.169Z,17.13
2017-09-26T06:10:49.478Z,15.70
2017-09-26T06:13:17.019Z,16.23
2017-09-26T06:15:44.912Z,16.50
2017-09-26T06:18:12.455Z,13.60
2017-09-26T06:20:39.987Z,16.17
2017-09-26T06:23:08.291Z,15.07
2017-09-26T06:25:35.838Z,14.93
2017-09-26T06:28:03.401Z,14.70
2017-09-26T06:30:31.732Z,13.73
2017-09-26T06:32:59.275Z,13.87
2017-09-26T06:35:26.793Z,12.90
2017-09-26T06:37:55.134Z,14.03
2017-09-26T06:40:22.664Z,11.97
2017-09-26T06:42:50.325Z,12.97
2017-09-26T06:45:17.840Z,13.13
2017-09-26T06:47:45.388Z,12.00
2017-09-26T06:50:12.912Z,12.37
2017-09-26T06:52:40.483Z,12.67
2017-09-26T06:55:08.039Z,12.33
2017-09-26T06:57:35.572Z,14.17
2017-09-26T07:00:03.096Z,13.80
2017-09-26T07:02:30.669Z,12.10
2017-09-26T07:04:58.975Z,12.30
2017-09-26T07:07:26.520Z,12.50
2017-09-26T07:09:54.063Z,12.50
2017-09-26T07:12:22.385Z,12.53
2017-09-26T07:14:49.919Z,13.27
2017-09-26T07:17:17.475Z,14.07
2017-09-26T07:19:45.749Z,11.60
2017-09-26T07:22:14.080Z,11.80
2017-09-26T07:24:41.604Z,12.77
2017-09-26T07:27:09.863Z,11.90
2017-09-26T07:29:38.174Z,12.47
2017-09-26T07:32:05.723Z,11.43
2017-09-26T07:34:33.244Z,11.57
2017-09-26T07:37:00.788Z,11.20
2017-09-26T07:39:28.346Z,11.40
2017-09-26T07:41:55.879Z,12.40
2017-09-26T07:44:23.425Z,11.93
2017-09-26T07:46:50.958Z,12.10
2017-09-26T07:49:19.283Z,11.83
2017-09-26T07:51:46.800Z,11.60
2017-09-26T07:54:14.368Z,11.27
2017-09-26T07:56:41.918Z,11.50
2017-09-26T07:59:10.235Z,9.80
2017-09-26T08:01:37.757Z,11.07
2017-09-26T08:04:06.308Z,10.43
2017-09-26T08:06:33.961Z,10.60
2017-09-26T08:09:01.699Z,10.17
2017-09-26T08:11:29.217Z,11.60
2017-09-26T08:13:56.766Z,11.10
2017-09-26T08:16:24.294Z,9.47
2017-09-26T08:18:51.858Z,11.23
2017-09-26T08:21:19.371Z,9.97
2017-09-26T08:23:46.928Z,9.87
2017-09-26T08:26:15.219Z,10.73
2017-09-26T08:28:43.622Z,9.73
2017-09-26T08:31:11.164Z,10.50
2017-09-26T08:33:38.742Z,9.27
2017-09-26T08:36:06.263Z,8.67
2017-09-26T08:38:34.577Z,10.13
2017-09-26T08:41:02.105Z,9.37
2017-09-26T08:43:30.425Z,9.87
2017-09-26T08:45:57.953Z,10.57
2017-09-26T08:48:26.270Z,10.10
2017-09-26T08:50:53.798Z,10.23
2017-09-26T08:53:21.316Z,7.93
2017-09-26T08:55:48.872Z,9.40
2017-09-26T08:58:16.406Z,9.30
2017-09-26T09:00:43.947Z,8.60
2017-09-26T09:03:11.469Z,8.57
2017-09-26T09:05:39.019Z,10.07
2017-09-26T09:08:07.340Z,8.50
2017-09-26T09:10:34.895Z,9.40
2017-09-26T09:13:02.414Z,8.90
2017-09-26T09:15:29.956Z,8.77
2017-09-26T09:17:57.483Z,9.70
2017-09-26T09:20:25.058Z,9.07
2017-09-26T09:22:52.580Z,9.03
2017-09-26T09:25:20.903Z,8.80
2017-09-26T09:27:48.450Z,9.10
2017-09-26T09:30:15.998Z,8.80
2017-09-26T09:32:43.593Z,9.63
2017-09-26T09:35:11.151Z,7.93
2017-09-26T09:37:38.675Z,9.70
2017-09-26T09:40:06.984Z,9.00
2017-09-26T09:42:34.506Z,8.73
2017-09-26T09:45:02.813Z,8.90
2017-09-26T09:47:30.355Z,9.37
2017-09-26T09:49:57.955Z,10.03
2017-09-26T09:52:25.464Z,8.97
2017-09-26T09:54:53.781Z,8.33
2017-09-26T09:57:21.300Z,7.97
2017-09-26T09:59:49.631Z,8.77
2017-09-26T10:02:17.145Z,7.97
2017-09-26T10:04:44.695Z,9.30
2017-09-26T10:07:12.991Z,8.10
2017-09-26T10:09:40.531Z,8.23
2017-09-26T10:12:08.866Z,7.50
2017-09-26T10:14:36.395Z,9.20
2017-09-26T10:17:03.945Z,9.80
2017-09-26T10:19:31.472Z,11.53
2017-09-26T10:21:59.026Z,9.77
2017-09-26T10:24:26.572Z,9.53
2017-09-26T10:26:54.134Z,8.60
2017-09-26T10:29:21.665Z,7.20
2017-09-26T10:31:49.215Z,7.50
2017-09-26T10:34:16.744Z,7.83
2017-09-26T10:36:45.052Z,7.00
2017-09-26T10:39:12.695Z,7.80
2017-09-26T10:41:41.022Z,7.60
2017-09-26T10:44:08.553Z,6.80
2017-09-26T10:46:36.100Z,7.40
2017-09-26T10:49:03.639Z,7.20
2017-09-26T10:51:31.215Z,7.00
2017-09-26T10:53:59.495Z,7.63
2017-09-26T10:56:27.811Z,9.20
2017-09-26T10:58:55.330Z,8.90
2017-09-26T11:01:23.688Z,7.33
2017-09-26T11:03:51.229Z,7.93
2017-09-26T11:06:18.797Z,6.60
2017-09-26T11:08:46.334Z,7.50
2017-09-26T11:11:13.992Z,6.10
2017-09-26T11:13:41.532Z,7.00
2017-09-26T11:16:09.085Z,7.40
2017-09-26T11:18:36.607Z,7.07
2017-09-26T11:21:04.181Z,6.50
2017-09-26T11:23:32.470Z,9.10
2017-09-26T11:26:01.088Z,6.47
2017-09-26T11:28:28.608Z,5.70
2017-09-26T11:30:56.894Z,6.53
2017-09-26T11:33:25.431Z,6.30
2017-09-26T11:35:52.935Z,7.20
2017-09-26T11:38:21.260Z,5.90
2017-09-26T11:40:48.780Z,5.63
2017-09-26T11:43:17.116Z,5.37
2017-09-26T11:45:44.666Z,6.33
2017-09-26T11:48:12.220Z,5.70
2017-09-26T11:50:39.735Z,5.40
2017-09-26T11:53:08.048Z,6.10
2017-09-26T11:55:35.589Z,5.90
2017-09-26T11:58:03.132Z,6.07
2017-09-26T12:00:31.440Z,6.17
2017-09-26T12:02:58.997Z,5.83
2017-09-26T12:05:26.523Z,5.17
2017-09-26T12:07:54.835Z,5.67
2017-09-26T12:10:22.778Z,5.80
2017-09-26T12:12:58.366Z,5.70
2017-09-26T12:15:25.901Z,5.83
2017-09-26T12:17:53.479Z,5.97
2017-09-26T12:20:20.999Z,5.57
2017-09-26T12:22:48.682Z,6.33
2017-09-26T12:25:17.358Z,6.43
2017-09-26T12:27:45.683Z,5.90
2017-09-26T12:30:13.244Z,6.03
2017-09-26T12:32:40.814Z,6.47
2017-09-26T12:35:08.381Z,6.63
2017-09-26T12:37:35.966Z,6.97
2017-09-26T12:40:03.529Z,6.67
2017-09-26T12:42:32.973Z,7.67
2017-09-26T12:45:00.575Z,5.83
2017-09-26T12:47:28.117Z,6.03
2017-09-26T12:49:57.009Z,6.10
2017-09-26T12:52:25.608Z,6.10
2017-09-26T12:54:54.079Z,6.57
2017-09-26T12:57:21.629Z,6.70
2017-09-26T12:59:49.233Z,6.53
2017-09-26T13:02:17.533Z,6.63
2017-09-26T13:04:45.919Z,6.57
2017-09-26T13:07:13.528Z,6.50
2017-09-26T13:09:41.215Z,6.30
2017-09-26T13:12:08.761Z,6.97
2017-09-26T13:14:36.341Z,6.53
2017-09-26T13:17:06.394Z,5.97
2017-09-26T13:19:34.033Z,6.70
2017-09-26T13:22:01.826Z,6.20
2017-09-26T13:24:29.506Z,5.67
2017-09-26T13:26:57.888Z,5.37
2017-09-26T13:29:25.548Z,6.00
2017-09-26T13:31:53.356Z,6.10
2017-09-26T13:34:21.084Z,6.13
2017-09-26T13:36:48.672Z,5.80
2017-09-26T13:39:16.315Z,6.07
2017-09-26T13:41:43.935Z,6.20
2017-09-26T13:44:11.619Z,5.73
2017-09-26T13:46:39.204Z,6.23
2017-09-26T13:49:06.830Z,5.97
2017-09-26T13:51:34.354Z,5.27
2017-09-26T13:54:03.406Z,5.10
2017-09-26T13:56:31.817Z,5.70
2017-09-26T13:58:59.369Z,5.00
2017-09-26T14:01:28.843Z,5.57
2017-09-26T14:03:56.523Z,5.50
2017-09-26T14:06:24.157Z,5.37
2017-09-26T14:08:51.750Z,5.90
2017-09-26T14:11:19.265Z,5.50
2017-09-26T14:13:47.668Z,4.60
2017-09-26T14:16:16.775Z,5.10
2017-09-26T14:18:44.396Z,4.70
2017-09-26T14:21:13.542Z,4.50
2017-09-26T14:23:54.610Z,6.43
2017-09-26T14:26:22.358Z,4.50
2017-09-26T14:28:50.697Z,4.60
2017-09-26T14:31:34.681Z,6.90
2017-09-26T14:34:46.498Z,4.43
2017-09-26T14:37:38.530Z,5.17
2017-09-26T14:40:06.339Z,11.30
2017-09-26T15:02:40.034Z,11.70
2017-09-26T15:05:07.858Z,7.70
2017-09-26T15:08:20.655Z,6.80
2017-09-26T15:10:48.484Z,5.50
2017-09-26T15:13:16.170Z,6.43
2017-09-26T15:15:43.802Z,6.73
2017-09-26T15:18:11.368Z,6.00
2017-09-26T15:20:39.257Z,6.00
2017-09-26T15:23:09.672Z,7.67
2017-09-26T15:25:37.447Z,6.57
2017-09-26T15:28:05.158Z,6.43
2017-09-26T15:30:32.903Z,7.73
2017-09-26T15:33:00.544Z,6.80
2017-09-26T15:35:28.856Z,6.67
2017-09-26T15:37:56.381Z,6.20
2017-09-26T15:40:24.005Z,7.83
2017-09-26T15:42:52.292Z,7.27
2017-09-26T15:45:19.800Z,7.70
2017-09-26T15:47:47.349Z,7.77
2017-09-26T15:50:15.920Z,7.00
2017-09-26T15:52:43.685Z,7.80
2017-09-26T15:55:11.210Z,7.03
2017-09-26T15:57:39.536Z,6.83
2017-09-26T16:00:07.836Z,7.13
2017-09-26T16:02:35.389Z,8.50
2017-09-26T16:05:02.916Z,7.47
2017-09-26T16:07:30.507Z,8.37
2017-09-26T16:09:58.032Z,7.70
2017-09-26T16:12:25.618Z,7.70
2017-09-26T16:14:53.200Z,6.93
2017-09-26T16:17:20.761Z,8.20
2017-09-26T16:19:48.270Z,7.93
2017-09-26T16:22:15.827Z,7.47
2017-09-26T16:24:43.852Z,8.10
2017-09-26T16:27:11.425Z,7.70
2017-09-26T16:29:38.976Z,8.30
2017-09-26T16:32:06.572Z,9.63
2017-09-26T16:34:34.875Z,8.47
2017-09-26T16:37:02.541Z,8.33
2017-09-26T16:39:30.072Z,8.53
2017-09-26T16:41:58.424Z,7.50
2017-09-26T16:44:27.413Z,9.27
2017-09-26T16:46:55.004Z,7.63
2017-09-26T16:49:24.177Z,8.50
2017-09-26T16:51:52.624Z,8.13
2017-09-26T16:54:20.204Z,7.67
2017-09-26T16:56:47.868Z,7.67
2017-09-26T16:59:15.462Z,8.23
2017-09-26T17:01:43.997Z,8.90
2017-09-26T17:04:11.546Z,7.40
2017-09-26T17:06:39.106Z,7.70
2017-09-26T17:09:06.935Z,7.20
2017-09-26T17:11:34.637Z,9.73
2017-09-26T17:14:02.990Z,9.50
2017-09-26T17:16:30.713Z,9.30
2017-09-26T17:18:58.372Z,7.60
2017-09-26T17:21:26.791Z,7.43
2017-09-26T17:23:54.427Z,7.93
2017-09-26T17:26:22.025Z,8.00
2017-09-26T17:28:49.837Z,8.50
2017-09-26T17:31:17.492Z,9.00
2017-09-26T17:33:45.126Z,7.67
2017-09-26T17:36:12.880Z,7.70
2017-09-26T17:38:41.331Z,8.50
2017-09-26T17:41:08.931Z,7.80
2017-09-26T17:43:38.118Z,8.17
2017-09-26T17:46:06.284Z,8.77
2017-09-26T17:48:34.716Z,9.60
2017-09-26T17:51:02.433Z,8.07
2017-09-26T17:53:30.161Z,8.43
2017-09-26T17:55:57.739Z,9.20
2017-09-26T17:58:25.401Z,9.27
2017-09-26T18:00:52.928Z,9.07
2017-09-26T18:03:21.000Z,7.90
2017-09-26T18:05:48.623Z,9.10
2017-09-26T18:08:16.283Z,8.20
2017-09-26T18:10:44.670Z,9.03
2017-09-26T18:13:12.308Z,9.00
2017-09-26T18:15:41.842Z,10.37
2017-09-26T18:18:10.791Z,10.10
2017-09-26T18:20:39.104Z,9.23
2017-09-26T18:23:08.051Z,9.20
2017-09-26T18:25:35.749Z,9.57
2017-09-26T18:28:03.867Z,9.97
2017-09-26T18:33:59.860Z,9.87
2017-09-26T18:39:13.619Z,10.63
2017-09-26T18:41:43.902Z,11.10
2017-09-26T18:44:12.276Z,13.27
2017-09-26T18:46:39.929Z,13.73
2017-09-26T18:49:07.514Z,14.03
2017-09-26T18:51:35.292Z,12.20
2017-09-26T18:54:02.859Z,16.57
2017-09-26T18:56:30.448Z,15.90
2017-09-26T18:58:58.810Z,16.63
2017-09-26T19:01:27.164Z,15.87
2017-09-26T19:03:54.724Z,16.43
2017-09-26T19:06:22.467Z,15.60
2017-09-26T19:08:50.027Z,15.80
2017-09-26T19:11:17.601Z,16.43
2017-09-26T19:13:45.169Z,17.07
2017-09-26T19:16:12.771Z,17.30
2017-09-26T19:18:41.073Z,17.73
2017-09-26T19:21:08.628Z,18.20
2017-09-26T19:23:36.241Z,17.90
2017-09-26T19:26:03.802Z,16.53
2017-09-26T19:28:31.446Z,20.80
2017-09-26T19:30:59.022Z,19.07
2017-09-26T19:33:26.646Z,23.43
2017-09-26T19:35:54.384Z,20.90
2017-09-26T19:38:22.707Z,20.77
2017-09-26T19:40:50.343Z,21.20
2017-09-26T19:43:17.978Z,21.33
2017-09-26T19:45:45.529Z,21.53
2017-09-26T19:48:13.892Z,22.83
2017-09-26T19:50:41.447Z,22.20
2017-09-26T19:53:09.036Z,22.90
2017-09-26T19:55:37.360Z,22.80
2017-09-26T19:58:04.926Z,22.17
2017-09-26T20:00:32.448Z,22.40
2017-09-26T20:03:00.791Z,22.87
2017-09-26T20:05:28.354Z,23.00
2017-09-26T20:07:55.941Z,22.63
2017-09-26T20:10:23.480Z,23.83
2017-09-26T20:12:51.044Z,25.20
2017-09-26T20:15:18.597Z,25.23
2017-09-26T20:17:46.183Z,26.70
2017-09-26T20:20:13.714Z,23.70
2017-09-26T20:22:41.334Z,23.30
2017-09-26T20:25:09.649Z,22.80
2017-09-26T20:27:37.290Z,24.00
2017-09-26T20:30:04.835Z,22.53
2017-09-26T20:32:32.432Z,25.10
2017-09-26T20:34:59.969Z,23.07
2017-09-26T20:37:27.851Z,24.60
2017-09-26T20:39:55.381Z,23.67
2017-09-26T20:42:22.922Z,24.87
2017-09-26T20:44:51.249Z,25.60
2017-09-26T20:47:18.795Z,25.00
2017-09-26T20:49:46.408Z,24.30
2017-09-26T20:52:13.933Z,24.40
2017-09-26T20:54:41.539Z,24.63
2017-09-26T20:57:09.930Z,25.07
2017-09-26T20:59:38.262Z,25.53
2017-09-26T21:02:05.815Z,25.50
2017-09-26T21:04:33.381Z,24.53
2017-09-26T21:07:00.947Z,22.97
2017-09-26T21:09:28.547Z,25.03
2017-09-26T21:11:56.891Z,25.80
2017-09-26T21:14:24.519Z,25.40
2017-09-26T21:16:52.041Z,24.23
2017-09-26T21:19:20.439Z,25.47
2017-09-26T21:21:47.980Z,23.40
2017-09-26T21:24:15.541Z,25.10
2017-09-26T21:26:43.077Z,26.20
2017-09-26T21:29:10.659Z,24.87
2017-09-26T21:31:38.191Z,25.80
2017-09-26T21:34:05.759Z,24.23
2017-09-26T21:36:33.322Z,25.20
2017-09-26T21:39:01.563Z,24.87
2017-09-26T21:41:29.097Z,24.77
2017-09-26T21:43:56.683Z,24.67
2017-09-26T21:46:25.002Z,24.90
2017-09-26T21:48:52.549Z,26.07
2017-09-26T21:51:20.144Z,25.30
2017-09-26T21:53:48.815Z,23.47
2017-09-26T21:56:17.133Z,24.80
2017-09-26T21:58:44.669Z,23.70
2017-09-26T22:01:13.035Z,25.03
2017-09-26T22:03:40.566Z,26.40
2017-09-26T22:06:08.125Z,24.87
2017-09-26T22:08:35.683Z,25.93
2017-09-26T22:11:03.242Z,25.80
2017-09-26T22:13:30.772Z,22.63
2017-09-26T22:15:58.326Z,28.60
2017-09-26T22:18:25.852Z,24.77
2017-09-26T22:20:53.421Z,25.83
2017-09-26T22:23:20.950Z,23.93
2017-09-26T22:25:48.497Z,24.73
2017-09-26T22:28:16.049Z,23.70
2017-09-26T22:30:43.611Z,22.33
2017-09-26T22:33:11.158Z,22.83
2017-09-26T22:35:38.724Z,21.90
2017-09-26T22:38:06.256Z,20.80
2017-09-26T22:40:34.592Z,24.07
2017-09-26T22:43:02.116Z,21.43
2017-09-26T22:45:30.058Z,23.47
2017-09-26T22:47:57.617Z,22.73
2017-09-26T22:50:25.124Z,22.37
2017-09-26T22:52:52.940Z,21.90
2017-09-26T22:55:20.455Z,21.23
2017-09-26T22:57:47.987Z,21.67
2017-09-26T23:00:15.825Z,20.83
2017-09-26T23:02:43.344Z,19.70
2017-09-26T23:05:10.871Z,20.20
2017-09-26T23:07:39.491Z,20.40
2017-09-26T23:10:07.021Z,20.50
2017-09-26T23:12:34.540Z,21.23
2017-09-26T23:15:02.372Z,23.03
2017-09-26T23:17:29.903Z,24.67
2017-09-26T23:19:57.431Z,22.00
2017-09-26T23:22:25.459Z,21.37
2017-09-26T23:24:52.983Z,19.67
2017-09-26T23:27:21.295Z,20.93
2017-09-26T23:29:49.114Z,18.70
2017-09-26T23:32:16.656Z,20.00
2017-09-26T23:34:44.208Z,19.27
2017-09-26T23:37:12.056Z,18.30
2017-09-26T23:39:39.580Z,17.37
2017-09-26T23:42:07.879Z,19.07
2017-09-26T23:44:35.730Z,17.63
2017-09-26T23:47:04.018Z,18.97
2017-09-26T23:49:31.568Z,19.53
2017-09-26T23:51:59.488Z,17.80
2017-09-26T23:54:27.024Z,18.47
2017-09-26T23:56:54.559Z,17.87
2017-09-26T23:59:22.646Z,18.50
